Time;durP1;ratioP1;P1;durP2;ratioP2;P2;SDS_P1;SDS_P2;PMS_P1;PMS_P2;Temp;Humidity;BMP_temperature;BMP_pressure;BME280_temperature;BME280_humidity;BME280_pressure;Samples;Min_cycle;Max_cycle;Signal;HPM_P1;HPM_P2
2023/02/28 00:03:50;;;;;;;4.97;2.50;;;;;;;;;;10471749;28;20067;-76
2023/02/28 00:09:02;;;;;;;;;;;;;;;;;;10474256;28;20115;-76
2023/02/28 00:14:09;;;;;;;0.00;0.00;;;;;;;;;;10474676;28;20147;-77
2023/02/28 00:19:25;;;;;;;6.73;2.17;;;;;;;;;;10458581;28;20102;-76
2023/02/28 00:24:41;;;;;;;2.83;1.27;;;;;;;;;;10479593;28;20402;-76
2023/02/28 00:29:47;;;;;;;0.77;0.47;;;;;;;;;;10484294;28;20036;-77
2023/02/28 00:35:05;;;;;;;1.35;0.80;;;;;;;;;;10480552;28;20048;-77
2023/02/28 00:40:16;;;;;;;3.10;1.67;;;;;;;;;;10485847;28;20033;-77
2023/02/28 00:45:21;;;;;;;2.17;1.00;;;;;;;;;;10477700;28;20044;-76
2023/02/28 00:56:00;;;;;;;4.50;1.70;;;;;;;;;;10457594;28;20048;-78
2023/02/28 01:01:14;;;;;;;3.05;1.25;;;;;;;;;;10490408;28;20119;-78
2023/02/28 01:06:18;;;;;;;0.80;0.40;;;;;;;;;;10482924;28;20158;-78
2023/02/28 01:11:29;;;;;;;;;;;;;;;;;;10484206;28;20036;-77
2023/02/28 01:16:39;;;;;;;2.60;1.27;;;;;;;;;;10468331;28;20314;-76
2023/02/28 01:21:48;;;;;;;7.87;1.23;;;;;;;;;;10460489;28;20044;-76
2023/02/28 01:26:54;;;;;;;1.40;1.00;;;;;;;;;;10484615;28;20111;-76
2023/02/28 01:32:00;;;;;;;2.17;0.93;;;;;;;;;;10463499;28;20036;-77
2023/02/28 01:37:16;;;;;;;4.00;0.93;;;;;;;;;;10461029;28;20119;-76
2023/02/28 01:42:23;;;;;;;2.13;1.10;;;;;;;;;;10464334;28;20512;-76
2023/02/28 01:47:34;;;;;;;3.33;1.53;;;;;;;;;;10448821;28;20048;-76
2023/02/28 01:52:42;;;;;;;1.97;1.37;;;;;;;;;;10476867;28;20044;-76
2023/02/28 01:57:53;;;;;;;2.00;1.07;;;;;;;;;;10481643;28;20064;-78
2023/02/28 02:03:00;;;;;;;3.53;1.77;;;;;;;;;;10481228;28;20477;-76
2023/02/28 02:13:35;;;;;;;0.87;0.70;;;;;;;;;;10478800;28;20048;-76
2023/02/28 02:18:44;;;;;;;5.07;2.17;;;;;;;;;;10475475;28;20067;-76
2023/02/28 02:24:04;;;;;;;1.47;1.17;;;;;;;;;;10489929;28;20050;-76
2023/02/28 02:29:24;;;;;;;3.43;0.80;;;;;;;;;;10479104;28;20040;-77
2023/02/28 02:34:35;;;;;;;3.30;1.60;;;;;;;;;;10494920;28;20056;-76
2023/02/28 02:39:45;;;;;;;2.77;0.73;;;;;;;;;;10477121;28;20482;-77
2023/02/28 02:44:50;;;;;;;2.93;1.70;;;;;;;;;;10476735;28;20509;-76
2023/02/28 02:49:52;;;;;;;;;;;;;;;;;;10476607;28;20059;-76
2023/02/28 02:54:57;;;;;;;4.07;1.13;;;;;;;;;;10481036;28;19924;-75
2023/02/28 03:00:01;;;;;;;2.47;1.10;;;;;;;;;;10475335;28;20037;-76
2023/02/28 03:05:18;;;;;;;6.00;2.23;;;;;;;;;;10479820;28;20040;-78
2023/02/28 03:10:45;;;;;;;0.77;0.63;;;;;;;;;;10465966;28;20071;-76
2023/02/28 03:16:07;;;;;;;2.07;1.27;;;;;;;;;;10468977;28;20043;-76
2023/02/28 03:21:17;;;;;;;2.00;1.13;;;;;;;;;;10492025;28;20051;-74
2023/02/28 03:26:42;;;;;;;2.37;1.23;;;;;;;;;;10499024;28;20378;-73
2023/02/28 03:32:05;;;;;;;4.00;1.03;;;;;;;;;;10482313;28;20052;-74
2023/02/28 03:37:35;;;;;;;2.20;1.23;;;;;;;;;;10493654;28;20411;-76
2023/02/28 03:42:44;;;;;;;3.65;1.48;;;;;;;;;;10474083;28;20036;-77
2023/02/28 03:47:52;;;;;;;1.73;1.37;;;;;;;;;;10471928;28;20036;-77
2023/02/28 03:53:01;;;;;;;6.43;2.37;;;;;;;;;;10477072;28;20079;-77
2023/02/28 03:58:09;;;;;;;9.47;2.80;;;;;;;;;;10436600;28;20193;-77
2023/02/28 04:03:13;;;;;;;8.40;3.87;;;;;;;;;;10439897;28;20421;-76
2023/02/28 04:08:17;;;;;;;3.03;1.13;;;;;;;;;;10472097;28;20456;-78
2023/02/28 04:13:23;;;;;;;3.83;1.17;;;;;;;;;;10489070;28;20496;-78
2023/02/28 04:18:29;;;;;;;9.43;2.43;;;;;;;;;;10460556;28;20507;-78
2023/02/28 04:29:15;;;;;;;6.40;3.20;;;;;;;;;;10475049;28;20041;-76
2023/02/28 04:34:20;;;;;;;8.13;2.53;;;;;;;;;;10469907;28;20501;-75
2023/02/28 04:39:36;;;;;;;3.23;1.67;;;;;;;;;;10469019;28;20032;-75
2023/02/28 04:44:50;;;;;;;6.90;2.50;;;;;;;;;;10426786;28;20350;-76
2023/02/28 04:49:56;;;;;;;4.67;2.10;;;;;;;;;;10454051;28;20040;-74
2023/02/28 04:55:00;;;;;;;8.90;2.90;;;;;;;;;;10472628;28;20048;-77
2023/02/28 05:00:40;;;;;;;6.50;3.33;;;;;;;;;;10472408;28;20043;-76
2023/02/28 05:05:45;;;;;;;4.90;2.23;;;;;;;;;;10429158;28;20053;-77
2023/02/28 05:10:50;;;;;;;4.03;2.58;;;;;;;;;;10440432;28;20037;-75
2023/02/28 05:15:58;;;;;;;4.03;2.07;;;;;;;;;;10473206;28;20049;-76
2023/02/28 05:21:31;;;;;;;11.27;3.93;;;;;;;;;;10467877;28;20045;-74
2023/02/28 05:26:45;;;;;;;4.43;1.63;;;;;;;;;;10440283;28;20461;-75
2023/02/28 05:31:51;;;;;;;3.30;2.20;;;;;;;;;;10436883;28;20449;-78
2023/02/28 05:37:22;;;;;;;4.10;2.03;;;;;;;;;;10447187;28;20410;-78
2023/02/28 05:42:25;;;;;;;;;;;;;;;;;;10451183;28;20385;-76
2023/02/28 05:47:43;;;;;;;0.97;0.87;;;;;;;;;;10441769;28;19943;-76
2023/02/28 05:53:02;;;;;;;3.87;1.77;;;;;;;;;;10439981;28;20041;-76
2023/02/28 05:58:12;;;;;;;4.53;2.47;;;;;;;;;;10437884;28;20052;-77
2023/02/28 06:03:14;;;;;;;;;;;;;;;;;;10435430;28;20029;-77
2023/02/28 06:08:20;;;;;;;5.93;3.33;;;;;;;;;;10431299;28;19932;-76
2023/02/28 06:13:24;;;;;;;16.30;3.83;;;;;;;;;;10440718;28;20201;-76
2023/02/28 06:18:28;;;;;;;2.58;1.02;;;;;;;;;;10439421;28;20474;-76
2023/02/28 06:23:44;;;;;;;9.03;3.63;;;;;;;;;;10440841;28;20132;-77
2023/02/28 06:28:48;;;;;;;9.33;3.70;;;;;;;;;;10439429;28;20071;-75
2023/02/28 06:33:51;;;;;;;5.40;2.13;;;;;;;;;;10434951;28;20044;-76
2023/02/28 06:39:10;;;;;;;8.47;3.10;;;;;;;;;;10441432;28;21317;-76
2023/02/28 06:44:34;;;;;;;5.07;2.67;;;;;;;;;;10433500;28;20044;-76
2023/02/28 06:49:44;;;;;;;9.33;4.20;;;;;;;;;;10467415;28;20192;-75
2023/02/28 06:54:59;;;;;;;8.60;2.93;;;;;;;;;;10430045;28;20080;-76
2023/02/28 07:00:07;;;;;;;11.47;3.30;;;;;;;;;;10439910;28;20033;-75
2023/02/28 07:05:15;;;;;;;9.83;4.30;;;;;;;;;;10437084;28;20051;-76
2023/02/28 07:10:19;;;;;;;13.60;5.47;;;;;;;;;;10434756;28;20490;-75
2023/02/28 07:15:25;;;;;;;10.87;3.63;;;;;;;;;;10435051;28;20503;-75
2023/02/28 07:20:39;;;;;;;8.13;3.80;;;;;;;;;;10434011;28;21389;-76
2023/02/28 07:25:48;;;;;;;10.35;4.38;;;;;;;;;;10432827;28;20049;-77
2023/02/28 07:30:56;;;;;;;10.50;4.83;;;;;;;;;;10433779;28;20438;-77
2023/02/28 07:36:07;;;;;;;4.90;2.40;;;;;;;;;;10438513;28;20044;-74
2023/02/28 07:41:14;;;;;;;14.13;6.03;;;;;;;;;;10468988;28;20059;-74
2023/02/28 07:46:29;;;;;;;15.63;6.17;;;;;;;;;;10437877;28;20032;-75
2023/02/28 07:51:38;;;;;;;14.47;5.37;;;;;;;;;;10442248;28;20621;-72
2023/02/28 07:56:53;;;;;;;;;;;;;;;;;;10442196;28;20037;-74
2023/02/28 08:02:02;;;;;;;17.73;8.57;;;;;;;;;;10461117;28;19999;-74
2023/02/28 08:07:14;;;;;;;8.70;3.77;;;;;;;;;;10469683;28;20102;-74
2023/02/28 08:12:20;;;;;;;8.33;3.43;;;;;;;;;;10468919;28;20029;-75
2023/02/28 08:17:56;;;;;;;8.50;4.13;;;;;;;;;;10471227;28;20191;-76
2023/02/28 08:23:11;;;;;;;6.63;3.50;;;;;;;;;;10485578;28;20209;-76
2023/02/28 08:28:27;;;;;;;18.23;5.43;;;;;;;;;;10456514;28;20135;-75
2023/02/28 08:33:33;;;;;;;9.87;3.40;;;;;;;;;;10458646;28;20187;-75
2023/02/28 08:38:38;;;;;;;10.00;4.03;;;;;;;;;;10469828;28;20048;-75
2023/02/28 08:43:48;;;;;;;9.73;4.00;;;;;;;;;;10440195;28;20401;-75
2023/02/28 08:48:59;;;;;;;6.30;3.10;;;;;;;;;;10456283;28;20033;-75
2023/02/28 08:54:04;;;;;;;9.47;4.17;;;;;;;;;;10482655;28;20071;-74
2023/02/28 08:59:10;;;;;;;15.67;6.63;;;;;;;;;;10481904;28;20482;-75
2023/02/28 09:04:21;;;;;;;9.30;4.87;;;;;;;;;;10480624;28;20520;-77
2023/02/28 09:09:30;;;;;;;11.50;4.43;;;;;;;;;;10483593;28;20048;-76
2023/02/28 09:14:35;;;;;;;;;;;;;;;;;;10474282;28;20040;-76
2023/02/28 09:19:46;;;;;;;9.17;4.03;;;;;;;;;;10491077;28;20579;-74
2023/02/28 09:24:56;;;;;;;13.23;4.33;;;;;;;;;;10480894;28;20512;-76
2023/02/28 09:30:01;;;;;;;10.63;4.57;;;;;;;;;;10479791;28;20048;-75
2023/02/28 09:35:13;;;;;;;17.27;7.10;;;;;;;;;;10441991;28;20037;-75
2023/02/28 09:40:20;;;;;;;19.40;5.27;;;;;;;;;;10480644;28;20052;-75
2023/02/28 09:45:26;;;;;;;10.70;5.33;;;;;;;;;;10477972;28;20053;-76
2023/02/28 09:50:43;;;;;;;11.53;4.50;;;;;;;;;;10495599;28;20052;-76
2023/02/28 09:55:56;;;;;;;14.13;5.87;;;;;;;;;;10474693;28;20042;-77
2023/02/28 10:01:06;;;;;;;9.90;5.07;;;;;;;;;;10457445;28;20075;-76
2023/02/28 10:06:21;;;;;;;10.77;4.90;;;;;;;;;;10476983;28;20049;-75
2023/02/28 10:11:27;;;;;;;14.70;6.90;;;;;;;;;;10445211;28;20513;-77
2023/02/28 10:16:39;;;;;;;14.47;6.17;;;;;;;;;;10460637;28;20037;-76
2023/02/28 10:22:05;;;;;;;12.53;5.00;;;;;;;;;;10451856;28;20048;-75
2023/02/28 10:33:06;;;;;;;15.63;5.68;;;;;;;;;;10458581;28;20050;-77
2023/02/28 10:38:23;;;;;;;10.23;4.80;;;;;;;;;;10474830;28;20051;-76
2023/02/28 10:43:30;;;;;;;15.45;6.65;;;;;;;;;;10474754;28;20043;-77
2023/02/28 10:48:42;;;;;;;8.68;4.55;;;;;;;;;;10455499;28;20036;-77
2023/02/28 10:53:57;;;;;;;12.10;5.55;;;;;;;;;;10474630;28;20113;-75
2023/02/28 10:59:36;;;;;;;11.57;3.90;;;;;;;;;;10473342;28;20510;-75
2023/02/28 11:04:49;;;;;;;7.28;3.70;;;;;;;;;;10494430;28;20581;-75
2023/02/28 11:09:57;;;;;;;10.60;4.57;;;;;;;;;;10471868;28;20040;-75
2023/02/28 11:15:27;;;;;;;13.95;6.60;;;;;;;;;;10472547;28;20513;-77
2023/02/28 11:20:35;;;;;;;19.25;8.60;;;;;;;;;;10474954;28;20135;-77
2023/02/28 11:25:50;;;;;;;15.32;7.82;;;;;;;;;;10459821;28;20411;-76
2023/02/28 11:31:04;;;;;;;15.23;7.80;;;;;;;;;;10474154;28;20136;-76
2023/02/28 11:36:13;;;;;;;10.45;5.38;;;;;;;;;;10474700;28;20485;-77
2023/02/28 11:41:35;;;;;;;14.75;8.70;;;;;;;;;;10457837;28;20067;-76
2023/02/28 11:46:48;;;;;;;15.20;8.20;;;;;;;;;;10474311;28;20063;-76
2023/02/28 11:52:02;;;;;;;10.90;5.63;;;;;;;;;;10472111;28;20063;-76
2023/02/28 11:57:27;;;;;;;14.68;7.78;;;;;;;;;;10474711;28;20087;-76
2023/02/28 12:02:35;;;;;;;15.05;8.45;;;;;;;;;;10467705;28;20052;-77
2023/02/28 12:07:51;;;;;;;14.63;9.48;;;;;;;;;;10489355;28;20044;-76
2023/02/28 12:13:05;;;;;;;9.93;6.75;;;;;;;;;;10449470;28;20226;-75
2023/02/28 12:18:17;;;;;;;14.10;7.80;;;;;;;;;;10456667;28;20472;-76
2023/02/28 12:23:42;;;;;;;16.58;8.50;;;;;;;;;;10490568;28;20049;-77
2023/02/28 12:28:52;;;;;;;16.38;7.47;;;;;;;;;;10434937;28;20036;-77
2023/02/28 12:34:01;;;;;;;13.88;7.45;;;;;;;;;;10467192;28;20394;-77
2023/02/28 12:39:08;;;;;;;11.48;6.72;;;;;;;;;;10488438;28;20537;-78
2023/02/28 12:44:19;;;;;;;15.20;7.93;;;;;;;;;;10479651;28;20086;-77
2023/02/28 12:49:31;;;;;;;13.48;6.13;;;;;;;;;;10480980;28;20410;-76
2023/02/28 12:54:50;;;;;;;9.48;5.22;;;;;;;;;;10467990;28;20060;-77
2023/02/28 13:00:00;;;;;;;15.15;7.45;;;;;;;;;;10478370;28;20049;-78
2023/02/28 13:05:13;;;;;;;12.57;6.35;;;;;;;;;;10453779;28;20041;-78
2023/02/28 13:10:27;;;;;;;12.43;7.30;;;;;;;;;;10459438;28;20432;-77
2023/02/28 13:15:40;;;;;;;6.93;5.13;;;;;;;;;;10476827;28;20043;-77
2023/02/28 13:20:51;;;;;;;12.88;7.20;;;;;;;;;;10464051;28;20052;-78
2023/02/28 13:26:05;;;;;;;14.52;7.28;;;;;;;;;;10465775;28;20037;-77
2023/02/28 13:31:27;;;;;;;15.80;7.65;;;;;;;;;;10473847;28;20124;-77
2023/02/28 13:36:36;;;;;;;16.30;7.45;;;;;;;;;;10462423;28;20087;-77
2023/02/28 13:41:49;;;;;;;12.13;6.32;;;;;;;;;;10464201;28;20055;-76
2023/02/28 13:47:13;;;;;;;14.88;5.30;;;;;;;;;;10456519;28;20052;-77
2023/02/28 13:52:23;;;;;;;14.13;6.28;;;;;;;;;;10478881;28;20073;-78
2023/02/28 13:57:44;;;;;;;8.88;4.28;;;;;;;;;;10445677;28;20544;-78
2023/02/28 14:03:19;;;;;;;11.88;6.38;;;;;;;;;;10475400;28;20135;-77
2023/02/28 14:08:27;;;;;;;13.15;5.97;;;;;;;;;;10460623;28;20041;-78
2023/02/28 14:13:46;;;;;;;14.90;5.95;;;;;;;;;;10457231;28;20557;-77
2023/02/28 14:18:53;;;;;;;14.55;5.63;;;;;;;;;;10475857;28;20583;-78
2023/02/28 14:24:23;;;;;;;8.02;4.20;;;;;;;;;;10482984;28;20033;-77
2023/02/28 14:29:39;;;;;;;10.85;4.45;;;;;;;;;;10446176;28;20149;-78
2023/02/28 14:34:42;;;;;;;;;;;;;;;;;;10477369;28;20044;-77
2023/02/28 14:39:51;;;;;;;7.43;3.47;;;;;;;;;;10476339;28;19938;-77
2023/02/28 14:45:01;;;;;;;7.07;3.47;;;;;;;;;;10451066;28;20066;-78
2023/02/28 14:50:09;;;;;;;13.07;4.97;;;;;;;;;;10470426;28;20078;-78
2023/02/28 14:55:26;;;;;;;12.55;4.45;;;;;;;;;;10492721;28;20044;-78
2023/02/28 15:00:33;;;;;;;10.95;4.43;;;;;;;;;;10459581;28;20036;-78
2023/02/28 15:05:38;;;;;;;11.57;6.10;;;;;;;;;;10460979;28;20060;-78
2023/02/28 15:10:48;;;;;;;13.73;5.45;;;;;;;;;;10479042;28;20040;-78
2023/02/28 15:15:56;;;;;;;10.45;4.28;;;;;;;;;;10470812;28;20044;-77
2023/02/28 15:21:16;;;;;;;9.27;3.83;;;;;;;;;;10457958;28;20059;-77
2023/02/28 15:26:26;;;;;;;14.95;4.97;;;;;;;;;;10475975;28;20036;-77
2023/02/28 15:31:36;;;;;;;9.23;4.45;;;;;;;;;;10463889;28;20041;-78
2023/02/28 15:37:00;;;;;;;23.60;7.90;;;;;;;;;;10475897;28;20113;-78
2023/02/28 15:42:19;;;;;;;14.70;5.35;;;;;;;;;;10490401;28;20105;-78
2023/02/28 15:47:29;;;;;;;13.70;5.28;;;;;;;;;;10461545;28;20037;-78
2023/02/28 15:52:40;;;;;;;12.77;5.38;;;;;;;;;;10488609;28;20048;-77
2023/02/28 15:57:49;;;;;;;14.40;4.93;;;;;;;;;;10459888;28;20408;-76
2023/02/28 16:02:54;;;;;;;14.23;4.93;;;;;;;;;;10487061;28;20120;-76
2023/02/28 16:07:59;;;;;;;13.75;5.82;;;;;;;;;;10457860;28;20048;-77
2023/02/28 16:13:08;;;;;;;14.25;6.40;;;;;;;;;;10475455;28;20090;-76
2023/02/28 16:18:23;;;;;;;16.50;6.07;;;;;;;;;;10450625;28;20044;-77
2023/02/28 16:23:34;;;;;;;13.40;5.57;;;;;;;;;;10486360;28;20045;-77
2023/02/28 16:28:48;;;;;;;18.70;6.63;;;;;;;;;;10452826;28;20057;-77
2023/02/28 16:33:56;;;;;;;17.02;5.95;;;;;;;;;;10454629;28;20045;-77
2023/02/28 16:39:05;;;;;;;10.50;4.90;;;;;;;;;;10484196;28;20272;-77
2023/02/28 16:44:33;;;;;;;16.20;5.22;;;;;;;;;;10480035;28;20036;-77
2023/02/28 16:49:38;;;;;;;12.85;5.15;;;;;;;;;;10446643;28;20075;-77
2023/02/28 16:54:45;;;;;;;10.48;4.47;;;;;;;;;;10452230;28;20033;-76
2023/02/28 16:59:53;;;;;;;12.27;5.60;;;;;;;;;;10474411;28;20130;-77
2023/02/28 17:04:58;;;;;;;19.30;5.77;;;;;;;;;;10456885;28;20035;-77
2023/02/28 17:10:08;;;;;;;25.33;7.50;;;;;;;;;;10494719;28;20047;-77
2023/02/28 17:15:16;;;;;;;16.93;6.63;;;;;;;;;;10479601;28;20235;-77
2023/02/28 17:20:30;;;;;;;24.67;8.73;;;;;;;;;;10470651;28;20118;-78
2023/02/28 17:25:35;;;;;;;28.07;8.17;;;;;;;;;;10487019;28;20060;-76
2023/02/28 17:30:51;;;;;;;30.50;8.90;;;;;;;;;;10467002;28;20460;-76
2023/02/28 17:36:04;;;;;;;16.27;6.07;;;;;;;;;;10470557;28;20044;-79
2023/02/28 17:41:09;;;;;;;21.83;8.13;;;;;;;;;;10500237;28;20037;-77
2023/02/28 17:46:24;;;;;;;;;;;;;;;;;;10478083;28;20048;-77
2023/02/28 17:51:31;;;;;;;24.97;7.70;;;;;;;;;;10471701;28;19967;-76
2023/02/28 17:56:35;;;;;;;18.93;6.77;;;;;;;;;;10487050;28;20044;-77
2023/02/28 18:01:39;;;;;;;19.40;7.43;;;;;;;;;;10487143;28;20146;-77
2023/02/28 18:06:47;;;;;;;22.97;8.60;;;;;;;;;;10483210;28;20045;-76
2023/02/28 18:11:51;;;;;;;32.03;11.63;;;;;;;;;;10488134;28;20058;-77
2023/02/28 18:16:59;;;;;;;17.53;6.43;;;;;;;;;;10461652;28;20076;-78
2023/02/28 18:22:18;;;;;;;27.25;8.45;;;;;;;;;;10484597;28;20159;-76
2023/02/28 18:27:57;;;;;;;21.30;8.07;;;;;;;;;;10458633;28;20044;-76
2023/02/28 18:33:25;;;;;;;21.40;6.67;;;;;;;;;;10484985;28;20048;-78
2023/02/28 18:38:50;;;;;;;17.90;7.17;;;;;;;;;;10457983;28;20040;-76
2023/02/28 18:44:13;;;;;;;22.50;8.30;;;;;;;;;;10473843;28;20044;-76
2023/02/28 18:49:29;;;;;;;18.63;8.43;;;;;;;;;;10473549;28;20102;-76
2023/02/28 18:54:36;;;;;;;17.02;5.57;;;;;;;;;;10460582;28;20033;-75
2023/02/28 18:59:50;;;;;;;13.43;6.10;;;;;;;;;;10456575;28;20050;-75
2023/02/28 19:05:06;;;;;;;22.57;7.97;;;;;;;;;;10476606;28;20049;-75
2023/02/28 19:15:45;;;;;;;16.67;7.27;;;;;;;;;;10457682;28;20028;-78
2023/02/28 19:20:51;;;;;;;12.03;4.90;;;;;;;;;;10461626;28;20040;-78
2023/02/28 19:26:00;;;;;;;10.17;4.47;;;;;;;;;;10477702;28;20043;-78
2023/02/28 19:31:04;;;;;;;14.13;5.77;;;;;;;;;;10449370;28;20076;-77
2023/02/28 19:36:13;;;;;;;19.35;7.55;;;;;;;;;;10443783;28;20486;-77
2023/02/28 19:41:32;;;;;;;23.00;8.20;;;;;;;;;;10491301;28;20045;-77
2023/02/28 19:46:40;;;;;;;14.80;4.23;;;;;;;;;;10487750;28;20047;-77
2023/02/28 19:51:47;;;;;;;10.68;4.30;;;;;;;;;;10469107;28;20053;-77
2023/02/28 20:02:25;;;;;;;17.60;6.93;;;;;;;;;;10468892;28;20135;-78
2023/02/28 20:07:31;;;;;;;18.65;7.63;;;;;;;;;;10473967;28;20094;-76
2023/02/28 20:12:36;;;;;;;19.57;8.37;;;;;;;;;;10456383;28;20128;-76
2023/02/28 20:17:47;;;;;;;16.50;5.93;;;;;;;;;;10470903;28;20494;-76
2023/02/28 20:22:59;;;;;;;18.57;6.93;;;;;;;;;;10479046;28;20428;-76
2023/02/28 20:28:06;;;;;;;19.03;6.17;;;;;;;;;;10457482;28;20131;-75
2023/02/28 20:33:11;;;;;;;20.17;6.93;;;;;;;;;;10471160;28;20052;-77
2023/02/28 20:38:23;;;;;;;13.13;5.80;;;;;;;;;;10453271;28;20373;-76
2023/02/28 20:43:32;;;;;;;11.53;3.93;;;;;;;;;;10477476;28;20040;-77
2023/02/28 20:48:49;;;;;;;17.83;6.17;;;;;;;;;;10436620;28;20429;-77
2023/02/28 20:54:09;;;;;;;16.53;6.70;;;;;;;;;;10478108;28;20041;-77
2023/02/28 20:59:40;;;;;;;15.60;5.23;;;;;;;;;;10471996;28;20405;-75
2023/02/28 21:04:51;;;;;;;10.73;3.93;;;;;;;;;;10477532;28;20427;-75
2023/02/28 21:10:00;;;;;;;15.90;6.00;;;;;;;;;;10482070;28;20040;-76
2023/02/28 21:15:14;;;;;;;19.30;7.57;;;;;;;;;;10482048;28;20158;-75
2023/02/28 21:20:32;;;;;;;15.45;5.70;;;;;;;;;;10468965;28;20110;-77
2023/02/28 21:25:48;;;;;;;15.47;6.53;;;;;;;;;;10464713;28;20048;-77
2023/02/28 21:31:03;;;;;;;22.87;7.50;;;;;;;;;;10475675;28;20053;-78
2023/02/28 21:36:10;;;;;;;18.57;6.23;;;;;;;;;;10486132;28;20056;-77
2023/02/28 21:41:31;;;;;;;13.07;4.90;;;;;;;;;;10448808;28;20401;-78
2023/02/28 21:46:40;;;;;;;10.13;3.53;;;;;;;;;;10478868;28;20044;-77
2023/02/28 21:51:44;;;;;;;12.23;5.90;;;;;;;;;;10458710;28;20079;-74
2023/02/28 21:56:50;;;;;;;17.73;7.30;;;;;;;;;;10463281;28;20062;-75
2023/02/28 22:01:55;;;;;;;11.53;4.10;;;;;;;;;;10458963;28;20095;-74
2023/02/28 22:07:02;;;;;;;13.20;5.53;;;;;;;;;;10480665;28;20433;-78
2023/02/28 22:12:12;;;;;;;11.13;4.63;;;;;;;;;;10450985;28;20462;-77
2023/02/28 22:17:23;;;;;;;4.07;2.70;;;;;;;;;;10488469;28;20060;-78
2023/02/28 22:22:39;;;;;;;15.87;6.40;;;;;;;;;;10463324;28;20135;-77
2023/02/28 22:27:46;;;;;;;15.00;4.87;;;;;;;;;;10461021;28;20409;-78
2023/02/28 22:32:53;;;;;;;12.40;4.70;;;;;;;;;;10467100;28;20093;-77
2023/02/28 22:37:58;;;;;;;10.90;4.97;;;;;;;;;;10475351;28;20299;-77
2023/02/28 22:43:04;;;;;;;12.60;4.83;;;;;;;;;;10477720;28;20041;-78
2023/02/28 22:48:16;;;;;;;14.00;4.80;;;;;;;;;;10460738;28;20051;-78
2023/02/28 22:53:22;;;;;;;13.10;4.17;;;;;;;;;;10454348;28;20051;-77
2023/02/28 22:58:32;;;;;;;8.27;3.77;;;;;;;;;;10477105;28;20440;-78
2023/02/28 23:03:36;;;;;;;11.37;5.50;;;;;;;;;;10430998;28;20119;-78
2023/02/28 23:08:46;;;;;;;17.90;6.57;;;;;;;;;;10477623;28;20401;-76
2023/02/28 23:14:01;;;;;;;21.77;7.93;;;;;;;;;;10452609;28;20430;-75
2023/02/28 23:19:06;;;;;;;14.57;6.27;;;;;;;;;;10468193;28;20045;-75
2023/02/28 23:24:16;;;;;;;14.27;4.53;;;;;;;;;;10481368;28;20047;-76
2023/02/28 23:29:23;;;;;;;16.97;6.57;;;;;;;;;;10455623;28;20159;-76
2023/02/28 23:34:37;;;;;;;19.87;7.37;;;;;;;;;;10455070;28;20906;-77
2023/02/28 23:39:43;;;;;;;17.33;6.67;;;;;;;;;;10479230;28;20037;-75
2023/02/28 23:44:52;;;;;;;11.37;4.23;;;;;;;;;;10473048;28;20037;-75
2023/02/28 23:49:58;;;;;;;19.10;6.53;;;;;;;;;;10470993;28;20102;-75
2023/02/28 23:55:05;;;;;;;21.03;7.93;;;;;;;;;;10469967;28;20043;-74
